This is the latest recevied weather packets stored in our database for station/object KG7KID-5. If no packets are shown the sender has not sent any weather packets the latest 10 day(s).
| Time | Temp. | Humidity | Pressure | Rain* | Wind** | Luminosity | Snow |
|---|---|---|---|---|---|---|---|
| 1778255413 | 22.22° C | 16% | 930.9 hPa | 0 mm | - | - | - |
| 1778255113 | 22.22° C | 17% | 930.9 hPa | 0 mm | - | - | - |
| 1778254813 | 22.22° C | 17% | 931 hPa | 0 mm | - | - | - |
| 1778254512 | 22.22° C | 17% | 931 hPa | 0 mm | - | - | - |
| 1778251839 | 19.44° C | 21% | 931.4 hPa | 0 mm | - | - | - |
| 1778251778 | 19.44° C | 21% | 931.4 hPa | 0 mm | - | - | - |
| 1778251082 | 18.33° C | 20% | 931.5 hPa | 0 mm | - | - | - |
| 1778250782 | 18.33° C | 20% | 931.6 hPa | 0 mm | - | - | - |
| 1778250482 | 17.78° C | 20% | 931.6 hPa | 0 mm | - | - | - |
| 1778250182 | 17.78° C | 21% | 931.7 hPa | 0 mm | - | - | - |
| 1778249102 | 16.67° C | 22% | 931.7 hPa | 0 mm | - | - | - |
| 1778247001 | 13.89° C | 25% | 931.6 hPa | 0 mm | - | - | - |
| 1778227484 | 17.78° C | 18% | 930.2 hPa | 0 mm | - | - | - |
| 1778227451 | 17.78° C | 18% | 930.2 hPa | 0 mm | - | - | - |
| 1778225951 | 17.78° C | 17% | 930.3 hPa | 0 mm | - | - | - |
| 1778225352 | 18.33° C | 18% | 930.3 hPa | 0 mm | - | - | - |
| 1778225202 | 18.33° C | 18% | 930.3 hPa | 0 mm | - | - | - |
| 1778225051 | 18.33° C | 18% | 930.3 hPa | 0 mm | - | - | - |
| 1778223924 | 18.33° C | 17% | 930.2 hPa | 0 mm | - | - | - |
| 1778223851 | 18.33° C | 17% | 930.2 hPa | 0 mm | - | - | - |
| 1778223251 | 18.89° C | 18% | 930.1 hPa | 0 mm | - | - | - |
| 1778222951 | 18.89° C | 18% | 930.1 hPa | 0 mm | - | - | - |
| 1778222237 | 19.44° C | 19% | 930 hPa | 0 mm | - | - | - |
| 1778221337 | 20.56° C | 15% | 929.9 hPa | 0 mm | - | - | - |
| 1778217136 | 23.33° C | 13% | 929.5 hPa | 0 mm | - | - | - |
* Rain latest hour (hover to see other rain measurements)
** Current wind speed in m/s (hover to see current wind gust speed)